Time;durP1;ratioP1;P1;durP2;ratioP2;P2;SDS_P1;SDS_P2;PMS_P1;PMS_P2;Temp;Humidity;BMP_temperature;BMP_pressure;BME280_temperature;BME280_humidity;BME280_pressure;Samples;Min_cycle;Max_cycle;Signal;HPM_P1;HPM_P2
2021/10/10 00:03:47;;;;;;;0.10;0.10;;;;;;;9.66;41.74;99349.59;115465;1219;137235;-82
2021/10/10 00:07:13;;;;;;;0.10;0.10;;;;;;;9.65;41.82;99348.53;115491;1219;137221;-83
2021/10/10 00:14:01;;;;;;;0.10;0.10;;;;;;;9.60;42.22;99344.21;115441;1219;137081;-83
2021/10/10 00:17:27;;;;;;;0.10;0.10;;;;;;;9.60;42.47;99343.73;115482;1219;137038;-82
2021/10/10 00:20:53;;;;;;;0.10;0.10;;;;;;;9.58;42.28;99339.92;115477;1219;137146;-82
2021/10/10 00:27:57;;;;;;;;;;;;;;;;;;;;;
2021/10/10 00:31:14;;;;;;;0.10;0.10;;;;;;;9.53;43.25;99337.96;115467;1219;137249;-82
2021/10/10 00:34:40;;;;;;;0.10;0.10;;;;;;;9.53;44.09;99341.79;115477;1219;136969;-82
2021/10/10 00:37:59;;;;;;;;;;;;;;;;;;;;;
2021/10/10 00:45:27;;;;;;;;;;;;;;;;;;;;;
2021/10/10 00:48:59;;;;;;;0.10;0.10;;;;;;;9.40;46.88;99342.55;115391;1219;137096;-81
2021/10/10 00:52:27;;;;;;;0.10;0.10;;;;;;;9.33;48.51;99340.86;115453;1219;137234;-83
2021/10/10 00:55:53;;;;;;;0.10;0.10;;;;;;;9.27;49.31;99337.73;115442;1219;137153;-84
2021/10/10 01:06:37;;;;;;;0.10;0.10;;;;;;;9.01;51.36;99322.80;115401;1209;137585;-85
2021/10/10 01:09:03;;;;;;;0.10;0.10;;;;;;;8.96;51.04;99315.64;115410;1219;137359;-85
2021/10/10 01:11:30;;;;;;;0.10;0.10;;;;;;;8.91;52.12;99310.07;115436;1218;22123;-85
2021/10/10 01:13:56;;;;;;;0.10;0.10;;;;;;;8.88;53.21;99303.58;115342;1219;137480;-85
2021/10/10 01:16:21;;;;;;;0.00;0.00;;;;;;;8.83;52.77;99303.05;115319;1219;137349;-84
2021/10/10 01:18:47;;;;;;;0.10;0.10;;;;;;;8.80;52.34;99305.43;115264;1216;137174;-84
2021/10/10 01:21:13;;;;;;;0.10;0.10;;;;;;;8.77;53.00;99301.38;115362;1219;137403;-82
2021/10/10 01:23:38;;;;;;;0.00;0.00;;;;;;;8.74;53.15;99302.77;115392;1219;23068;-82
2021/10/10 01:26:04;;;;;;;0.10;0.10;;;;;;;8.70;53.24;99299.56;115348;1217;136640;-81
2021/10/10 01:28:29;;;;;;;0.10;0.10;;;;;;;8.66;53.63;99300.92;115328;1219;137166;-81
2021/10/10 01:30:55;;;;;;;0.10;0.10;;;;;;;8.63;53.87;99296.57;115341;1219;137061;-81
2021/10/10 01:33:20;;;;;;;0.10;0.10;;;;;;;8.58;54.10;99294.60;115315;1217;137631;-81
2021/10/10 01:35:46;;;;;;;0.10;0.10;;;;;;;8.54;54.32;99295.96;115396;1218;137217;-81
2021/10/10 01:38:17;;;;;;;0.00;0.00;;;;;;;8.51;54.43;99298.77;115418;1219;22320;-81
2021/10/10 01:40:45;;;;;;;0.10;0.10;;;;;;;8.48;55.01;99294.20;115351;1219;135795;-83
2021/10/10 01:43:11;;;;;;;0.10;0.10;;;;;;;8.44;55.56;99290.40;115378;1212;137400;-83
2021/10/10 01:45:37;;;;;;;0.10;0.10;;;;;;;8.42;55.19;99290.73;115345;1215;137064;-84
2021/10/10 01:48:04;;;;;;;0.10;0.10;;;;;;;8.41;55.77;99295.45;115432;1215;137171;-84
2021/10/10 01:50:32;;;;;;;0.10;0.10;;;;;;;8.39;56.20;99294.34;115453;1215;22769;-83
2021/10/10 01:52:58;;;;;;;0.00;0.00;;;;;;;8.37;56.00;99292.86;115393;1215;137049;-84
2021/10/10 01:55:24;;;;;;;0.10;0.10;;;;;;;8.34;56.42;99291.04;115370;1219;137930;-84
2021/10/10 01:57:49;;;;;;;0.10;0.10;;;;;;;8.30;56.23;99300.33;115397;1219;137016;-84
2021/10/10 02:00:15;;;;;;;0.10;0.10;;;;;;;8.27;56.18;99304.58;115416;1214;137190;-84
2021/10/10 02:02:42;;;;;;;0.00;0.00;;;;;;;8.26;56.58;99302.70;115539;1214;22189;-84
2021/10/10 02:05:08;;;;;;;0.00;0.00;;;;;;;8.24;56.72;99299.54;115350;1219;136628;-84
2021/10/10 02:07:34;;;;;;;0.10;0.10;;;;;;;8.22;56.74;99300.71;115305;1205;137322;-85
2021/10/10 02:10:00;;;;;;;0.00;0.00;;;;;;;8.19;56.96;99298.69;115258;1219;137110;-84
2021/10/10 02:12:25;;;;;;;0.00;0.00;;;;;;;8.18;57.98;99301.64;115331;1219;137365;-84
2021/10/10 02:14:52;;;;;;;0.10;0.10;;;;;;;8.15;57.58;99297.20;115407;1215;137110;-85
2021/10/10 02:17:19;;;;;;;0.10;0.10;;;;;;;8.11;57.84;99293.87;115446;1214;22184;-84
2021/10/10 02:19:46;;;;;;;0.10;0.10;;;;;;;8.09;58.05;99294.08;115252;1220;136927;-84
2021/10/10 02:22:12;;;;;;;0.10;0.10;;;;;;;8.07;57.90;99294.63;115258;1219;137227;-84
2021/10/10 02:24:37;;;;;;;0.00;0.00;;;;;;;8.05;57.91;99292.44;115293;1214;137263;-84
2021/10/10 02:27:03;;;;;;;0.00;0.00;;;;;;;8.02;57.91;99292.01;115400;1219;137214;-85
2021/10/10 02:29:31;;;;;;;0.10;0.10;;;;;;;8.01;58.06;99293.92;115378;1217;22199;-84
2021/10/10 02:31:57;;;;;;;0.10;0.10;;;;;;;8.01;58.47;99294.69;115264;1220;137390;-84
2021/10/10 02:34:22;;;;;;;0.10;0.10;;;;;;;8.00;58.75;99295.16;115322;1219;137197;-84
2021/10/10 02:36:47;;;;;;;0.10;0.10;;;;;;;7.98;58.74;99299.25;115281;1219;137121;-85
2021/10/10 02:39:13;;;;;;;0.10;0.10;;;;;;;7.94;58.44;99305.09;115299;1219;137165;-83
2021/10/10 02:41:40;;;;;;;0.10;0.10;;;;;;;7.93;58.52;99299.35;115388;1219;22251;-83
2021/10/10 02:44:06;;;;;;;0.10;0.10;;;;;;;7.92;58.53;99302.20;115347;1219;136980;-84
2021/10/10 02:46:32;;;;;;;0.10;0.10;;;;;;;7.92;59.23;99300.64;115339;1219;136984;-84
2021/10/10 02:48:58;;;;;;;0.10;0.10;;;;;;;7.90;59.79;99301.29;115319;1214;137210;-85
2021/10/10 02:51:24;;;;;;;0.10;0.10;;;;;;;7.88;59.65;99300.96;115305;1219;137534;-85
2021/10/10 02:53:49;;;;;;;0.10;0.10;;;;;;;7.85;59.38;99294.69;115343;1219;137659;-85
2021/10/10 02:56:15;;;;;;;0.00;0.00;;;;;;;7.84;59.08;99293.35;115440;1214;22265;-85
2021/10/10 02:58:42;;;;;;;0.00;0.00;;;;;;;7.86;59.23;99286.81;115370;1219;137619;-85
2021/10/10 03:01:11;;;;;;;0.10;0.10;;;;;;;7.91;59.65;99283.86;115424;1215;137919;-85
2021/10/10 03:03:36;;;;;;;0.10;0.10;;;;;;;7.97;59.90;99286.86;115331;1218;137634;-85
2021/10/10 03:06:02;;;;;;;0.10;0.10;;;;;;;8.03;59.71;99285.45;115316;1219;137351;-85
2021/10/10 03:08:28;;;;;;;0.00;0.00;;;;;;;8.08;59.77;99278.64;115439;1219;22295;-85
2021/10/10 03:10:54;;;;;;;0.10;0.10;;;;;;;8.11;59.97;99279.33;115340;1215;138139;-85
2021/10/10 03:13:20;;;;;;;0.10;0.10;;;;;;;8.14;59.91;99279.33;115322;1219;137922;-85
2021/10/10 03:15:46;;;;;;;0.10;0.10;;;;;;;8.16;59.78;99280.45;115350;1219;137292;-85
2021/10/10 03:18:11;;;;;;;0.10;0.10;;;;;;;8.16;59.54;99281.52;115310;1218;137523;-85
2021/10/10 03:20:37;;;;;;;0.10;0.10;;;;;;;8.15;60.21;99277.72;115428;1217;22434;-85
2021/10/10 03:23:03;;;;;;;0.10;0.10;;;;;;;8.10;59.63;99270.52;115305;1219;136993;-84
2021/10/10 03:25:29;;;;;;;0.10;0.10;;;;;;;8.07;59.82;99269.26;115332;1219;137979;-84
2021/10/10 03:27:54;;;;;;;0.00;0.00;;;;;;;8.04;60.00;99270.81;115328;1218;137374;-84
2021/10/10 03:30:20;;;;;;;0.10;0.10;;;;;;;8.00;59.93;99270.50;115331;1219;137467;-84
2021/10/10 03:32:45;;;;;;;0.10;0.10;;;;;;;7.97;59.83;99269.86;115376;1219;137336;-84
2021/10/10 03:35:11;;;;;;;0.10;0.10;;;;;;;7.95;59.96;99266.00;115448;1219;22271;-84
2021/10/10 03:37:36;;;;;;;0.00;0.00;;;;;;;7.92;60.29;99268.89;115327;1206;137147;-84
2021/10/10 03:40:10;;;;;;;0.10;0.10;;;;;;;7.85;59.99;99269.97;115401;1219;138106;-85
2021/10/10 03:42:36;;;;;;;0.00;0.00;;;;;;;7.78;60.32;99275.39;115306;1216;137209;-84
2021/10/10 03:45:04;;;;;;;0.00;0.00;;;;;;;7.74;60.73;99272.38;115315;1219;137083;-84
2021/10/10 03:47:29;;;;;;;0.10;0.10;;;;;;;7.73;60.39;99267.02;115417;1220;22991;-84
2021/10/10 03:49:55;;;;;;;0.10;0.10;;;;;;;7.71;61.36;99271.10;115415;1219;137015;-84
2021/10/10 03:52:21;;;;;;;0.00;0.00;;;;;;;7.69;61.08;99269.70;115391;1219;137197;-85
2021/10/10 03:57:12;;;;;;;0.00;0.00;;;;;;;7.67;60.50;99273.50;115328;1219;137169;-85
2021/10/10 03:59:40;;;;;;;0.10;0.10;;;;;;;7.66;60.89;99267.61;115431;1219;22253;-85
2021/10/10 04:02:08;;;;;;;0.10;0.10;;;;;;;7.65;60.88;99266.97;115340;1219;137196;-84
2021/10/10 04:04:35;;;;;;;0.00;0.00;;;;;;;7.63;60.70;99261.23;115314;1219;137205;-84
2021/10/10 04:07:03;;;;;;;0.10;0.10;;;;;;;7.62;60.74;99259.36;115320;1219;137542;-85
2021/10/10 04:09:29;;;;;;;0.10;0.10;;;;;;;7.65;61.06;99252.50;115422;1219;138064;-85
2021/10/10 04:11:54;;;;;;;0.00;0.00;;;;;;;7.68;61.00;99250.77;115312;1214;137921;-85
2021/10/10 04:14:21;;;;;;;0.10;0.10;;;;;;;7.73;61.06;99244.52;115436;1218;22107;-85
2021/10/10 04:16:46;;;;;;;0.10;0.10;;;;;;;7.77;61.38;99244.62;115346;1219;137047;-85
2021/10/10 04:19:12;;;;;;;0.10;0.10;;;;;;;7.80;60.95;99247.35;115340;1219;137714;-84
2021/10/10 04:21:38;;;;;;;0.10;0.10;;;;;;;7.82;61.26;99251.20;115332;1219;137342;-85
2021/10/10 04:24:03;;;;;;;0.10;0.10;;;;;;;7.85;61.38;99251.79;115443;1219;137365;-85
2021/10/10 04:26:29;;;;;;;0.00;0.00;;;;;;;7.86;61.21;99255.92;115476;1219;22261;-85
2021/10/10 04:28:54;;;;;;;0.10;0.10;;;;;;;7.84;60.98;99261.65;115336;1216;137082;-84
2021/10/10 04:31:24;;;;;;;0.00;0.00;;;;;;;7.81;61.28;99261.86;115345;1219;137423;-84
2021/10/10 04:33:50;;;;;;;0.10;0.10;;;;;;;7.79;61.34;99261.98;115385;1218;137896;-84
2021/10/10 04:36:15;;;;;;;0.10;0.10;;;;;;;7.77;61.07;99258.71;115330;1219;137446;-85
2021/10/10 04:38:41;;;;;;;0.10;0.10;;;;;;;7.76;61.09;99257.91;115458;1219;22309;-84
2021/10/10 04:41:08;;;;;;;0.00;0.00;;;;;;;7.73;60.91;99256.94;115294;1219;136895;-85
2021/10/10 04:43:33;;;;;;;0.10;0.10;;;;;;;7.69;60.89;99254.42;115329;1219;137202;-85
2021/10/10 04:45:59;;;;;;;0.00;0.00;;;;;;;7.67;61.42;99249.65;115326;1219;137836;-84
2021/10/10 04:48:24;;;;;;;0.10;0.10;;;;;;;7.61;61.21;99254.33;115345;1215;138024;-84
2021/10/10 04:50:50;;;;;;;0.10;0.10;;;;;;;7.58;60.73;99250.45;115328;1219;137315;-84
2021/10/10 04:53:15;;;;;;;0.10;0.10;;;;;;;7.55;61.10;99251.37;115457;1219;22194;-84
2021/10/10 04:55:42;;;;;;;0.10;0.10;;;;;;;7.52;61.42;99250.08;115331;1219;137857;-84
2021/10/10 04:58:08;;;;;;;0.10;0.10;;;;;;;7.48;61.20;99245.25;115348;1219;137155;-84
2021/10/10 05:00:33;;;;;;;0.10;0.10;;;;;;;7.43;61.28;99246.01;115356;1219;137426;-84
2021/10/10 05:02:59;;;;;;;0.10;0.10;;;;;;;7.38;61.45;99245.25;115450;1219;137770;-84
2021/10/10 05:05:25;;;;;;;0.10;0.10;;;;;;;7.34;61.93;99247.81;115532;1216;22180;-84
2021/10/10 05:07:53;;;;;;;0.00;0.00;;;;;;;7.29;61.56;99244.91;115417;1219;137156;-84
2021/10/10 05:10:19;;;;;;;0.00;0.00;;;;;;;7.27;61.89;99247.64;115385;1219;137761;-84
2021/10/10 05:12:45;;;;;;;0.00;0.00;;;;;;;7.29;61.87;99251.17;115352;1219;138295;-84
2021/10/10 05:15:10;;;;;;;0.10;0.10;;;;;;;7.33;62.37;99250.60;115351;1219;138771;-84
2021/10/10 05:17:36;;;;;;;0.10;0.10;;;;;;;7.40;62.38;99252.00;115451;1219;22301;-84
2021/10/10 05:20:02;;;;;;;0.10;0.10;;;;;;;7.45;62.11;99253.61;115320;1219;136948;-84
2021/10/10 05:22:28;;;;;;;0.10;0.10;;;;;;;7.49;62.29;99254.42;115361;1219;138008;-84
2021/10/10 05:24:59;;;;;;;0.00;0.00;;;;;;;7.50;61.88;99251.52;115342;1219;137239;-84
2021/10/10 05:27:25;;;;;;;0.10;0.10;;;;;;;7.53;62.02;99251.27;115454;1218;137316;-84
2021/10/10 05:29:51;;;;;;;0.10;0.10;;;;;;;7.54;62.07;99254.09;115359;1219;137704;-84
2021/10/10 05:32:17;;;;;;;0.00;0.00;;;;;;;7.56;61.99;99254.42;115481;1216;23563;-84
2021/10/10 05:34:42;;;;;;;0.00;0.00;;;;;;;7.55;62.23;99257.96;115446;1217;136987;-84
2021/10/10 05:37:08;;;;;;;0.10;0.10;;;;;;;7.54;61.74;99258.00;115360;1219;137237;-85
2021/10/10 05:39:33;;;;;;;0.10;0.10;;;;;;;7.53;62.11;99260.58;115442;1218;137149;-84
2021/10/10 05:41:59;;;;;;;0.10;0.10;;;;;;;7.51;62.15;99256.78;115344;1219;137302;-84
2021/10/10 05:44:26;;;;;;;0.10;0.10;;;;;;;7.51;62.22;99258.02;115461;1219;22345;-84
2021/10/10 05:46:53;;;;;;;0.10;0.10;;;;;;;7.47;62.43;99259.63;115358;1219;137325;-85
2021/10/10 05:49:18;;;;;;;0.10;0.10;;;;;;;7.46;62.44;99263.31;115353;1219;137391;-85
2021/10/10 05:51:45;;;;;;;0.00;0.00;;;;;;;7.44;62.51;99263.52;115331;1219;137214;-84
2021/10/10 05:54:13;;;;;;;0.00;0.00;;;;;;;7.41;62.65;99265.23;115376;1219;137410;-85
2021/10/10 05:56:39;;;;;;;0.00;0.00;;;;;;;7.38;62.64;99262.16;115505;1219;22225;-84
2021/10/10 05:59:08;;;;;;;0.10;0.10;;;;;;;7.37;62.89;99264.10;115454;1218;136721;-84
2021/10/10 06:01:34;;;;;;;0.10;0.10;;;;;;;7.35;62.74;99266.95;115357;1217;136943;-84
2021/10/10 06:04:04;;;;;;;0.10;0.10;;;;;;;7.35;63.00;99268.71;115358;1219;136277;-84
2021/10/10 06:06:29;;;;;;;0.00;0.00;;;;;;;7.38;63.00;99263.73;115423;1217;138177;-85
2021/10/10 06:08:55;;;;;;;0.10;0.10;;;;;;;7.43;63.19;99265.55;115281;1219;138066;-85
2021/10/10 06:11:20;;;;;;;0.00;0.00;;;;;;;7.48;63.01;99265.55;115527;1219;22322;-85
2021/10/10 06:13:46;;;;;;;0.10;0.10;;;;;;;7.53;62.87;99262.08;115346;1216;137212;-85
2021/10/10 06:16:20;;;;;;;0.00;0.00;;;;;;;7.57;62.98;99263.70;115289;1212;137238;-85
2021/10/10 06:18:46;;;;;;;0.00;0.00;;;;;;;7.59;62.90;99264.02;115440;1216;137221;-84
2021/10/10 06:21:12;;;;;;;0.10;0.10;;;;;;;7.61;62.82;99267.92;115451;1216;138851;-85
2021/10/10 06:23:38;;;;;;;0.10;0.10;;;;;;;7.65;63.04;99261.06;115571;1217;22356;-85
2021/10/10 06:26:03;;;;;;;0.00;0.00;;;;;;;7.66;62.93;99263.80;115348;1212;136961;-83
2021/10/10 06:28:29;;;;;;;0.00;0.00;;;;;;;7.64;62.45;99262.79;115379;1217;137757;-84
2021/10/10 06:30:55;;;;;;;0.10;0.10;;;;;;;7.63;62.37;99263.11;115317;1219;137010;-85
2021/10/10 06:33:20;;;;;;;0.10;0.10;;;;;;;7.61;62.81;99259.58;115288;1219;137734;-86
2021/10/10 06:35:46;;;;;;;0.10;0.10;;;;;;;7.58;62.95;99263.43;115304;1219;137434;-86
2021/10/10 06:38:12;;;;;;;0.10;0.10;;;;;;;7.55;63.10;99264.88;115436;1219;23206;-87
2021/10/10 06:40:38;;;;;;;0.10;0.10;;;;;;;7.54;63.12;99265.99;115349;1219;137050;-86
2021/10/10 06:43:05;;;;;;;0.00;0.00;;;;;;;7.52;63.83;99261.34;115385;1216;137116;-85
2021/10/10 06:45:31;;;;;;;0.00;0.00;;;;;;;7.52;63.21;99263.21;115298;1219;137978;-85
2021/10/10 06:47:57;;;;;;;0.00;0.00;;;;;;;7.50;63.45;99263.58;115247;1216;137799;-86
2021/10/10 06:50:23;;;;;;;0.10;0.10;;;;;;;7.51;63.72;99260.64;115442;1216;22322;-86
2021/10/10 06:52:48;;;;;;;0.10;0.10;;;;;;;7.50;63.67;99267.23;115231;1219;137366;-85
2021/10/10 06:55:15;;;;;;;0.10;0.10;;;;;;;7.50;63.50;99267.06;115485;1219;22870;-85
2021/10/10 06:57:42;;;;;;;0.10;0.10;;;;;;;7.52;63.75;99268.41;115279;1217;137056;-84
2021/10/10 07:00:09;;;;;;;0.10;0.10;;;;;;;7.56;63.62;99269.21;115356;1219;137458;-85
2021/10/10 07:02:35;;;;;;;0.10;0.10;;;;;;;7.63;63.81;99269.27;115361;1206;138116;-84
2021/10/10 07:05:03;;;;;;;0.10;0.10;;;;;;;7.70;64.19;99271.14;115353;1219;138338;-84
2021/10/10 07:07:29;;;;;;;0.10;0.10;;;;;;;7.79;64.12;99272.64;115488;1219;22150;-84
2021/10/10 07:09:56;;;;;;;0.00;0.00;;;;;;;7.87;63.94;99271.09;115401;1219;136964;-85
2021/10/10 07:12:21;;;;;;;0.20;0.10;;;;;;;7.93;63.75;99272.75;115462;1215;137294;-84
2021/10/10 07:14:48;;;;;;;0.10;0.10;;;;;;;7.98;63.54;99269.95;115342;1219;137255;-85
2021/10/10 07:17:15;;;;;;;0.10;0.10;;;;;;;8.03;63.68;99267.49;115367;1219;137401;-84
2021/10/10 07:19:48;;;;;;;0.10;0.10;;;;;;;8.04;63.59;99265.88;115345;1216;137393;-84
2021/10/10 07:22:28;;;;;;;0.10;0.10;;;;;;;8.07;63.67;99269.20;115442;1212;22261;-84
2021/10/10 07:25:04;;;;;;;0.00;0.00;;;;;;;8.10;63.59;99270.38;115366;1218;136956;-85
2021/10/10 07:27:31;;;;;;;0.10;0.10;;;;;;;8.14;63.70;99270.91;115415;1216;137381;-86
2021/10/10 07:30:03;;;;;;;0.10;0.10;;;;;;;8.17;63.70;99267.20;115462;1217;137182;-87
2021/10/10 07:32:31;;;;;;;0.10;0.10;;;;;;;8.23;63.52;99269.94;115366;1219;137004;-87
2021/10/10 07:34:58;;;;;;;0.10;0.10;;;;;;;8.28;63.37;99273.08;115455;1219;137969;-85
2021/10/10 07:37:24;;;;;;;0.10;0.10;;;;;;;8.32;63.24;99274.84;115571;1212;22266;-84
2021/10/10 07:39:50;;;;;;;0.10;0.10;;;;;;;8.38;63.62;99274.38;115383;1219;136904;-86
2021/10/10 07:42:16;;;;;;;0.10;0.10;;;;;;;8.39;62.96;99272.33;115338;1217;137105;-85
2021/10/10 07:44:46;;;;;;;0.10;0.10;;;;;;;8.40;63.16;99270.34;115347;1219;137311;-85
2021/10/10 07:47:28;;;;;;;0.10;0.10;;;;;;;8.43;63.24;99270.33;115298;1219;137255;-85
2021/10/10 07:50:02;;;;;;;0.10;0.10;;;;;;;8.44;63.25;99268.08;115360;1219;137269;-85
2021/10/10 07:52:28;;;;;;;0.10;0.10;;;;;;;8.47;63.23;99267.05;115455;1219;22293;-84
2021/10/10 07:54:54;;;;;;;0.10;0.10;;;;;;;8.52;63.14;99271.65;115379;1219;136836;-85
2021/10/10 07:57:19;;;;;;;0.10;0.10;;;;;;;8.57;63.31;99276.41;115382;1219;138305;-86
2021/10/10 07:59:49;;;;;;;0.10;0.10;;;;;;;8.65;63.39;99278.27;115468;1216;137466;-85
2021/10/10 08:02:14;;;;;;;0.10;0.10;;;;;;;8.75;63.57;99277.09;115341;1219;138036;-85
2021/10/10 08:04:40;;;;;;;0.00;0.00;;;;;;;8.87;63.27;99279.56;115306;1219;138053;-84
2021/10/10 08:07:05;;;;;;;0.10;0.10;;;;;;;8.95;63.20;99280.62;115535;1211;22315;-84
2021/10/10 08:09:31;;;;;;;0.10;0.10;;;;;;;9.01;62.85;99281.12;115303;1219;137295;-85
2021/10/10 08:11:57;;;;;;;0.10;0.10;;;;;;;9.07;63.06;99281.89;115317;1203;137554;-85
2021/10/10 09:43:29;;;;;;;0.10;0.10;;;;;;;11.23;56.21;99231.12;115591;1207;22282;-84
2021/10/10 09:45:55;;;;;;;0.10;0.10;;;;;;;11.26;56.08;99227.43;115406;1217;136601;-83
2021/10/10 09:48:29;;;;;;;0.20;0.20;;;;;;;11.30;56.10;99231.88;115443;1217;136810;-84
2021/10/10 09:50:55;;;;;;;0.20;0.20;;;;;;;11.34;55.81;99237.23;115471;1217;136957;-84
2021/10/10 09:53:32;;;;;;;0.10;0.10;;;;;;;11.37;55.41;99233.41;115445;1216;137382;-82
2021/10/10 09:56:07;;;;;;;0.20;0.20;;;;;;;11.39;55.35;99234.61;115360;1217;137493;-83
2021/10/10 09:58:39;;;;;;;0.10;0.10;;;;;;;11.39;55.29;99237.41;115466;1217;22180;-83
2021/10/10 10:01:14;;;;;;;;;;;;;;;11.40;55.20;99240.31;115395;1217;22349;-84
2021/10/10 10:04:05;;;;;;;0.10;0.10;;;;;;;11.38;54.92;99241.20;115439;1217;122913;-84
2021/10/10 10:06:33;;;;;;;0.10;0.10;;;;;;;11.38;54.71;99241.58;115438;1212;136730;-82
2021/10/10 10:09:04;;;;;;;0.10;0.10;;;;;;;11.36;54.62;99238.48;115403;1217;136652;-82
2021/10/10 10:11:39;;;;;;;0.10;0.10;;;;;;;11.32;54.27;99242.86;115423;1216;136850;-83
2021/10/10 10:14:09;;;;;;;0.20;0.20;;;;;;;11.28;54.65;99242.27;115317;1211;137118;-83
2021/10/10 10:16:43;;;;;;;0.10;0.10;;;;;;;11.27;55.07;99247.73;115475;1209;22807;-83
2021/10/10 10:19:26;;;;;;;0.10;0.10;;;;;;;11.26;54.62;99251.03;115542;1217;22669;-82
2021/10/10 10:21:56;;;;;;;0.20;0.20;;;;;;;11.22;55.03;99250.77;115358;1217;136910;-82
2021/10/10 10:24:24;;;;;;;0.20;0.20;;;;;;;11.20;54.99;99255.52;115395;1217;136766;-83
2021/10/10 10:26:50;;;;;;;0.10;0.10;;;;;;;11.17;55.26;99258.71;115323;1213;136829;-82
2021/10/10 10:29:24;;;;;;;0.20;0.20;;;;;;;11.16;55.35;99261.64;115278;1216;137190;-83
2021/10/10 10:31:50;;;;;;;0.10;0.10;;;;;;;11.13;55.46;99251.13;115383;1213;137364;-83
2021/10/10 10:34:30;;;;;;;0.10;0.10;;;;;;;11.12;55.71;99241.86;115399;1217;22393;-83
2021/10/10 10:37:11;;;;;;;0.10;0.10;;;;;;;11.08;55.23;99240.02;115375;1217;136813;-84
2021/10/10 10:39:43;;;;;;;0.10;0.10;;;;;;;11.05;55.25;99244.16;115366;1218;137118;-82
2021/10/10 10:42:27;;;;;;;0.10;0.10;;;;;;;11.05;55.41;99251.38;115422;1213;137352;-83
2021/10/10 10:44:54;;;;;;;0.20;0.20;;;;;;;11.05;55.78;99238.61;115459;1213;137023;-83
2021/10/10 10:47:22;;;;;;;0.10;0.10;;;;;;;11.05;55.85;99233.48;115458;1217;137138;-82
2021/10/10 10:49:54;;;;;;;0.20;0.20;;;;;;;11.04;55.76;99230.37;115438;1211;137063;-83
2021/10/10 10:52:27;;;;;;;0.10;0.10;;;;;;;11.05;55.97;99227.50;115572;1216;22921;-83
2021/10/10 10:54:57;;;;;;;0.10;0.10;;;;;;;11.07;55.68;99228.13;115472;1218;136859;-83
2021/10/10 10:57:35;;;;;;;0.10;0.10;;;;;;;11.07;55.83;99230.05;115398;1215;137006;-83
2021/10/10 11:00:20;;;;;;;0.10;0.10;;;;;;;11.07;55.88;99232.86;115451;1209;137476;-83
2021/10/10 11:02:57;;;;;;;0.10;0.10;;;;;;;11.09;56.17;99237.42;115459;1218;137296;-84
2021/10/10 11:05:57;;;;;;;0.10;0.10;;;;;;;11.11;56.34;99238.58;115456;1211;137130;-84
2021/10/10 11:08:26;;;;;;;0.10;0.10;;;;;;;11.14;56.18;99233.67;115290;1217;137160;-84
2021/10/10 11:11:04;;;;;;;0.10;0.10;;;;;;;11.17;56.22;99233.86;115486;1213;137080;-84
2021/10/10 11:13:50;;;;;;;0.20;0.20;;;;;;;11.21;56.15;99232.77;115581;1216;22303;-84
2021/10/10 11:16:18;;;;;;;0.10;0.10;;;;;;;11.26;56.17;99224.55;115611;1213;23163;-84
2021/10/10 11:18:48;;;;;;;0.10;0.10;;;;;;;11.32;56.20;99225.50;115494;1213;136659;-84
2021/10/10 11:21:36;;;;;;;0.20;0.20;;;;;;;11.39;56.40;99223.30;115359;1211;136999;-84
2021/10/10 11:24:07;;;;;;;0.20;0.20;;;;;;;11.49;56.26;99218.54;115382;1216;137166;-85
2021/10/10 11:26:35;;;;;;;0.10;0.10;;;;;;;11.58;55.96;99219.20;115462;1211;137146;-85
2021/10/10 11:29:08;;;;;;;0.20;0.20;;;;;;;11.66;55.50;99215.03;115356;1209;137172;-86
2021/10/10 11:31:37;;;;;;;0.20;0.20;;;;;;;11.72;55.27;99214.40;115476;1217;22990;-85
2021/10/10 11:34:07;;;;;;;0.20;0.20;;;;;;;11.76;55.07;99213.46;115537;1218;22192;-85
2021/10/10 11:36:41;;;;;;;0.10;0.10;;;;;;;11.81;54.97;99212.95;115484;1215;136760;-86
2021/10/10 11:39:08;;;;;;;0.10;0.10;;;;;;;11.85;55.01;99207.17;115475;1217;137186;-85
2021/10/10 11:41:39;;;;;;;0.10;0.10;;;;;;;11.91;55.15;99203.77;115452;1209;136982;-84
2021/10/10 11:44:07;;;;;;;0.10;0.10;;;;;;;11.97;55.01;99199.40;115398;1213;137241;-86
2021/10/10 11:46:38;;;;;;;0.20;0.20;;;;;;;12.02;55.02;99196.89;115511;1214;22180;-85
2021/10/10 11:49:24;;;;;;;0.30;0.30;;;;;;;12.06;55.04;99194.01;115471;1218;22286;-85
2021/10/10 11:51:51;;;;;;;0.10;0.10;;;;;;;12.08;55.15;99193.54;115434;1213;136926;-85
2021/10/10 11:54:33;;;;;;;0.10;0.10;;;;;;;12.10;55.12;99193.23;115468;1217;137168;-85
2021/10/10 11:56:59;;;;;;;0.20;0.20;;;;;;;12.07;55.05;99190.70;115339;1217;136988;-85
2021/10/10 11:59:26;;;;;;;0.10;0.10;;;;;;;12.04;55.07;99191.67;115431;1213;136961;-85
2021/10/10 12:01:53;;;;;;;0.20;0.20;;;;;;;12.00;54.88;99194.33;115332;1214;137205;-86
2021/10/10 12:04:20;;;;;;;0.10;0.10;;;;;;;11.95;54.84;99198.04;115552;1217;22344;-86
2021/10/10 12:07:07;;;;;;;0.10;0.10;;;;;;;11.91;54.96;99199.68;115499;1215;135549;-87
2021/10/10 12:09:46;;;;;;;0.20;0.20;;;;;;;11.89;55.26;99205.06;115494;1216;136797;-86
2021/10/10 12:12:14;;;;;;;0.10;0.10;;;;;;;11.85;55.18;99206.70;115388;1217;136848;-84
2021/10/10 12:14:52;;;;;;;0.10;0.10;;;;;;;11.83;55.14;99203.85;115515;1214;136963;-85
2021/10/10 12:17:36;;;;;;;0.10;0.10;;;;;;;11.80;55.33;99201.46;115509;1217;137068;-86
2021/10/10 12:20:16;;;;;;;0.10;0.10;;;;;;;11.78;55.54;99201.54;115512;1216;138439;-87
2021/10/10 12:23:01;;;;;;;0.10;0.10;;;;;;;11.79;55.62;99199.49;115504;1217;137147;-86
2021/10/10 12:25:49;;;;;;;0.10;0.10;;;;;;;11.79;55.42;99200.84;115565;1218;22255;-86
2021/10/10 12:28:19;;;;;;;0.20;0.20;;;;;;;11.77;55.30;99198.37;115528;1217;136501;-86
2021/10/10 12:30:54;;;;;;;0.20;0.20;;;;;;;11.77;55.40;99190.60;115459;1216;22186;-86
2021/10/10 12:33:40;;;;;;;0.10;0.10;;;;;;;11.79;55.51;99192.25;115455;1213;137509;-86
2021/10/10 12:36:12;;;;;;;0.20;0.20;;;;;;;11.80;55.30;99192.92;115449;1215;136973;-86
2021/10/10 12:38:41;;;;;;;0.20;0.20;;;;;;;11.81;55.33;99193.83;115425;1217;137270;-85
2021/10/10 12:41:25;;;;;;;0.20;0.20;;;;;;;11.82;55.34;99189.17;115433;1217;137381;-86
2021/10/10 12:44:02;;;;;;;0.10;0.10;;;;;;;11.82;55.23;99185.84;115395;1216;137440;-86
2021/10/10 12:47:02;;;;;;;0.10;0.10;;;;;;;11.85;55.24;99184.89;115567;1216;22287;-85
2021/10/10 12:49:33;;;;;;;0.20;0.20;;;;;;;11.88;55.24;99179.55;115565;1217;22283;-86
2021/10/10 12:52:02;;;;;;;0.10;0.10;;;;;;;11.89;55.00;99179.10;115365;1216;136766;-86
2021/10/10 12:54:30;;;;;;;0.10;0.10;;;;;;;11.89;54.90;99172.56;115388;1218;137241;-86
2021/10/10 12:57:04;;;;;;;0.20;0.20;;;;;;;11.89;54.83;99169.48;115341;1218;137408;-86
2021/10/10 12:59:39;;;;;;;0.10;0.10;;;;;;;11.91;54.85;99173.30;115396;1218;137087;-86
2021/10/10 13:02:07;;;;;;;0.10;0.10;;;;;;;11.93;54.87;99170.93;115325;1216;137148;-86
2021/10/10 13:04:36;;;;;;;0.20;0.20;;;;;;;11.96;54.71;99165.73;115456;1216;22274;-86
2021/10/10 13:07:05;;;;;;;0.10;0.10;;;;;;;12.01;54.38;99162.83;115436;1213;136682;-86
2021/10/10 13:09:31;;;;;;;0.20;0.20;;;;;;;12.05;54.41;99162.13;115443;1214;137080;-86
2021/10/10 13:11:58;;;;;;;0.10;0.10;;;;;;;12.08;54.52;99167.91;115282;1218;137072;-86
2021/10/10 13:14:28;;;;;;;0.20;0.20;;;;;;;12.10;54.63;99166.06;115336;1217;137170;-86
2021/10/10 13:16:56;;;;;;;0.10;0.10;;;;;;;12.14;54.70;99165.34;115361;1218;137295;-85
2021/10/10 13:19:25;;;;;;;0.20;0.20;;;;;;;12.18;54.61;99158.30;115535;1216;22381;-84
2021/10/10 13:21:52;;;;;;;0.10;0.10;;;;;;;12.24;54.71;99152.30;115447;1216;136888;-85
2021/10/10 13:24:38;;;;;;;0.20;0.20;;;;;;;12.29;54.54;99144.95;115420;1214;137197;-86
2021/10/10 13:27:04;;;;;;;0.20;0.20;;;;;;;12.33;54.23;99146.02;115450;1216;137322;-86
2021/10/10 13:29:50;;;;;;;0.20;0.20;;;;;;;12.35;54.21;99143.23;115366;1218;137243;-87
2021/10/10 13:32:16;;;;;;;0.10;0.10;;;;;;;12.39;54.03;99142.72;115404;1217;137905;-86
2021/10/10 13:35:25;;;;;;;0.10;0.10;;;;;;;12.40;53.59;99147.08;115385;1218;137171;-87
2021/10/10 13:38:50;;;;;;;0.20;0.20;;;;;;;12.38;53.82;99146.73;115512;1218;137237;-86
2021/10/10 13:41:37;;;;;;;0.10;0.10;;;;;;;12.34;53.44;99137.52;115513;1217;137784;-87
2021/10/10 13:44:26;;;;;;;0.10;0.10;;;;;;;12.34;53.51;99134.98;115524;1217;137825;-87